Time;durP1;ratioP1;P1;durP2;ratioP2;P2;SDS_P1;SDS_P2;PMS_P1;PMS_P2;Temp;Humidity;BMP_temperature;BMP_pressure;BME280_temperature;BME280_humidity;BME280_pressure;Samples;Min_cycle;Max_cycle;Signal;HPM_P1;HPM_P2
2022/09/25 00:01:31;;;;;;;10.33;3.10;;;10.30;99.90;;;;;;5075156;28;20154;-66
2022/09/25 00:03:57;;;;;;;9.83;2.60;;;10.30;99.90;;;;;;5075569;28;20392;-66
2022/09/25 00:06:25;;;;;;;7.07;2.50;;;10.30;99.90;;;;;;5075071;28;20048;-66
2022/09/25 00:08:51;;;;;;;10.70;2.77;;;10.20;99.90;;;;;;5075340;28;20365;-66
2022/09/25 00:11:24;;;;;;;13.27;3.03;;;10.20;99.90;;;;;;5075159;28;20366;-69
2022/09/25 00:13:50;;;;;;;7.63;2.30;;;10.20;99.90;;;;;;5075260;28;20385;-66
2022/09/25 00:16:20;;;;;;;7.90;2.50;;;10.20;99.90;;;;;;5074323;28;20397;-66
2022/09/25 00:21:32;;;;;;;7.13;2.90;;;10.20;99.90;;;;;;5074927;28;20282;-66
2022/09/25 00:24:00;;;;;;;8.07;2.73;;;10.20;99.90;;;;;;5075116;28;20789;-66
2022/09/25 00:26:27;;;;;;;5.50;2.50;;;10.20;99.90;;;;;;5074692;28;20378;-66
2022/09/25 00:28:54;;;;;;;11.80;2.53;;;10.10;99.90;;;;;;5074999;28;20283;-66
2022/09/25 00:31:24;;;;;;;7.20;2.20;;;10.10;99.90;;;;;;5074730;28;20286;-69
2022/09/25 00:33:55;;;;;;;9.47;2.53;;;10.20;99.90;;;;;;5075152;28;20604;-66
2022/09/25 00:36:21;;;;;;;11.33;2.60;;;10.10;99.90;;;;;;5074185;28;20616;-67
2022/09/25 00:38:47;;;;;;;8.90;2.43;;;10.10;99.90;;;;;;5056762;28;20290;-66
2022/09/25 00:41:16;;;;;;;7.60;2.10;;;10.10;99.90;;;;;;5074833;28;20110;-66
2022/09/25 00:43:50;;;;;;;6.50;2.23;;;10.10;99.90;;;;;;5074414;28;20344;-66
2022/09/25 00:46:21;;;;;;;7.07;2.00;;;10.10;99.90;;;;;;5074774;28;20276;-66
2022/09/25 00:49:14;;;;;;;6.63;1.80;;;10.00;99.90;;;;;;5074618;28;20044;-66
2022/09/25 00:51:45;;;;;;;10.03;2.40;;;10.00;99.90;;;;;;5070043;28;20334;-66
2022/09/25 00:54:21;;;;;;;8.50;2.30;;;10.00;99.90;;;;;;5074425;28;20282;-66
2022/09/25 00:56:49;;;;;;;7.00;2.40;;;10.00;99.90;;;;;;5056174;28;20302;-66
2022/09/25 00:59:19;;;;;;;5.90;2.03;;;10.00;99.90;;;;;;5074141;28;20282;-66
2022/09/25 01:01:46;;;;;;;10.20;2.13;;;10.00;99.90;;;;;;5039747;28;20301;-66
2022/09/25 01:04:13;;;;;;;8.10;2.03;;;10.00;99.90;;;;;;5074115;28;20275;-66
2022/09/25 01:06:41;;;;;;;9.07;2.03;;;10.00;99.90;;;;;;5073825;28;20336;-66
2022/09/25 01:09:06;;;;;;;7.60;2.20;;;9.90;99.90;;;;;;5074047;28;20275;-66
2022/09/25 01:11:33;;;;;;;6.30;2.20;;;9.90;99.90;;;;;;5073707;28;20309;-66
2022/09/25 01:14:02;;;;;;;9.60;2.80;;;9.90;99.90;;;;;;5073769;28;20407;-66
2022/09/25 01:17:06;;;;;;;7.43;2.50;;;9.90;99.90;;;;;;5073592;28;20295;-66
2022/09/25 01:20:06;;;;;;;9.63;2.43;;;9.90;99.90;;;;;;5068803;28;20302;-66
2022/09/25 01:23:00;;;;;;;6.43;2.50;;;9.90;99.90;;;;;;5073630;28;20283;-66
2022/09/25 01:25:37;;;;;;;9.40;2.80;;;9.90;99.90;;;;;;5073683;28;20275;-69
2022/09/25 01:28:03;;;;;;;10.63;2.70;;;9.80;99.90;;;;;;5073720;28;20328;-66
2022/09/25 01:30:35;;;;;;;10.77;2.37;;;9.80;99.90;;;;;;5073376;28;20346;-66
2022/09/25 01:33:08;;;;;;;6.73;2.20;;;9.80;99.90;;;;;;5073872;28;20044;-66
2022/09/25 01:35:44;;;;;;;8.23;2.47;;;9.70;99.90;;;;;;5073332;28;20315;-66
2022/09/25 01:38:22;;;;;;;7.87;2.50;;;9.80;99.90;;;;;;5073708;28;20677;-65
2022/09/25 01:41:03;;;;;;;7.33;2.13;;;9.80;99.90;;;;;;5072985;28;20812;-66
2022/09/25 01:43:36;;;;;;;7.47;2.10;;;9.70;99.90;;;;;;5073083;28;20285;-66
2022/09/25 01:46:29;;;;;;;7.93;2.33;;;9.70;99.90;;;;;;5073380;28;20289;-65
2022/09/25 01:49:00;;;;;;;8.03;1.87;;;9.70;99.90;;;;;;5073701;28;20275;-66
2022/09/25 01:51:36;;;;;;;5.73;1.80;;;9.70;99.90;;;;;;5073449;28;20360;-65
2022/09/25 01:54:16;;;;;;;6.87;1.87;;;9.70;99.90;;;;;;5073405;28;20409;-66
2022/09/25 01:56:49;;;;;;;11.23;2.70;;;9.70;99.90;;;;;;5072929;28;20825;-66
2022/09/25 01:59:17;;;;;;;7.97;2.80;;;9.80;99.90;;;;;;5073529;28;20286;-66
2022/09/25 02:01:46;;;;;;;7.33;2.83;;;9.70;99.90;;;;;;5072901;28;20321;-66
2022/09/25 02:04:21;;;;;;;6.00;2.00;;;9.80;99.90;;;;;;5073325;28;20635;-66
2022/09/25 02:06:49;;;;;;;5.35;2.05;;;9.80;99.90;;;;;;5072964;28;20302;-66
2022/09/25 02:09:26;;;;;;;6.00;2.17;;;9.80;99.90;;;;;;5073246;28;20044;-66
2022/09/25 02:11:58;;;;;;;10.93;2.30;;;9.80;99.90;;;;;;5055228;28;20317;-66
2022/09/25 02:14:35;;;;;;;6.70;2.30;;;9.90;99.90;;;;;;5073134;28;20348;-66
2022/09/25 02:17:06;;;;;;;9.63;3.30;;;9.90;99.90;;;;;;5073039;28;20676;-66
2022/09/25 02:22:28;;;;;;;10.00;2.57;;;9.90;99.90;;;;;;5073054;28;20271;-66
2022/09/25 02:25:05;;;;;;;7.33;2.40;;;10.00;99.90;;;;;;5072726;28;20385;-66
2022/09/25 02:27:33;;;;;;;7.70;2.23;;;10.00;99.90;;;;;;5072776;28;20691;-66
2022/09/25 02:29:59;;;;;;;8.87;2.60;;;10.00;99.90;;;;;;5073073;28;20298;-66
2022/09/25 02:32:29;;;;;;;8.63;2.67;;;10.00;99.90;;;;;;5072798;28;20274;-66
2022/09/25 02:34:55;;;;;;;12.87;2.90;;;10.00;99.90;;;;;;5072499;28;20285;-66
2022/09/25 02:37:21;;;;;;;8.60;2.23;;;9.90;99.90;;;;;;5072740;28;20330;-66
2022/09/25 02:39:51;;;;;;;6.77;2.03;;;10.00;99.90;;;;;;5071989;28;20370;-66
2022/09/25 02:42:34;;;;;;;8.03;2.37;;;9.90;99.90;;;;;;5055346;28;20044;-66
2022/09/25 02:45:34;;;;;;;7.77;2.03;;;9.90;99.90;;;;;;5072744;28;20314;-66
2022/09/25 02:48:12;;;;;;;8.30;2.10;;;9.90;99.90;;;;;;5072745;28;20284;-66
2022/09/25 02:50:51;;;;;;;9.93;2.20;;;9.90;99.90;;;;;;5072497;28;20354;-66
2022/09/25 02:53:46;;;;;;;10.33;2.10;;;9.80;99.90;;;;;;5072734;28;20612;-66
2022/09/25 02:56:48;;;;;;;9.70;2.55;;;9.80;99.90;;;;;;5072497;28;20302;-66
2022/09/25 02:59:20;;;;;;;9.63;2.10;;;9.80;99.90;;;;;;5072588;28;20075;-66
2022/09/25 03:01:46;;;;;;;8.93;2.27;;;9.70;99.90;;;;;;5072347;28;20631;-66
2022/09/25 03:04:16;;;;;;;10.27;2.57;;;9.70;99.90;;;;;;5072532;28;20355;-66
2022/09/25 03:06:43;;;;;;;9.10;2.27;;;9.70;99.90;;;;;;5054645;28;20287;-66
2022/09/25 03:09:10;;;;;;;10.67;2.20;;;9.70;99.90;;;;;;5072434;28;20275;-66
2022/09/25 03:11:41;;;;;;;9.07;2.00;;;9.70;99.90;;;;;;5072397;28;20275;-66
2022/09/25 03:14:07;;;;;;;7.37;2.37;;;9.70;99.90;;;;;;5072454;28;20295;-66
2022/09/25 03:16:39;;;;;;;9.23;2.67;;;9.70;99.90;;;;;;5072395;28;20334;-66
2022/09/25 03:19:05;;;;;;;10.37;2.00;;;9.70;99.90;;;;;;5072469;28;20287;-66
2022/09/25 03:21:31;;;;;;;8.90;2.20;;;9.70;99.90;;;;;;5072238;28;20616;-66
2022/09/25 03:23:58;;;;;;;10.40;2.87;;;9.60;99.90;;;;;;5071975;28;20049;-66
2022/09/25 03:26:26;;;;;;;9.63;1.90;;;9.60;99.90;;;;;;5072257;28;20283;-66
2022/09/25 03:28:52;;;;;;;6.87;1.80;;;9.60;99.90;;;;;;5072018;28;20646;-66
2022/09/25 03:31:18;;;;;;;11.23;2.50;;;9.60;99.90;;;;;;5072209;28;20287;-66
2022/09/25 03:33:45;;;;;;;11.30;2.80;;;9.60;99.90;;;;;;5071846;28;20275;-66
2022/09/25 03:36:19;;;;;;;9.10;2.33;;;9.50;99.90;;;;;;5072106;28;20409;-66
2022/09/25 03:38:48;;;;;;;7.67;2.23;;;9.60;99.90;;;;;;5071824;28;20282;-66
2022/09/25 03:41:16;;;;;;;12.40;2.27;;;9.60;99.90;;;;;;5072374;28;20279;-66
2022/09/25 03:43:42;;;;;;;7.10;2.03;;;9.70;99.90;;;;;;5071916;28;20358;-66
2022/09/25 03:46:11;;;;;;;8.90;1.70;;;9.70;99.90;;;;;;5072093;28;20286;-66
2022/09/25 03:48:38;;;;;;;8.80;2.00;;;9.80;99.90;;;;;;5072130;28;20316;-66
2022/09/25 03:51:04;;;;;;;7.97;1.70;;;9.80;99.90;;;;;;5054124;28;20295;-66
2022/09/25 03:53:32;;;;;;;5.97;1.37;;;9.90;99.90;;;;;;5075737;28;20279;-66
2022/09/25 03:55:59;;;;;;;6.37;1.40;;;10.00;99.90;;;;;;5075268;28;20287;-66
2022/09/25 03:58:25;;;;;;;4.43;1.40;;;10.00;99.90;;;;;;5075674;28;20285;-66
2022/09/25 04:00:50;;;;;;;9.60;2.00;;;10.10;99.90;;;;;;5057560;28;20618;-66
2022/09/25 04:03:17;;;;;;;8.60;1.40;;;10.10;99.90;;;;;;5075462;28;20287;-66
2022/09/25 04:05:43;;;;;;;9.43;1.53;;;10.10;99.90;;;;;;5075383;28;20105;-66
2022/09/25 04:08:09;;;;;;;8.50;1.70;;;10.20;99.90;;;;;;5075654;28;20366;-66
2022/09/25 04:10:37;;;;;;;6.47;1.40;;;10.20;99.90;;;;;;5075366;28;20279;-66
2022/09/25 04:13:07;;;;;;;7.33;1.97;;;10.20;99.90;;;;;;5075286;28;20382;-66
2022/09/25 04:15:33;;;;;;;6.23;1.70;;;10.20;99.90;;;;;;5074679;28;20351;-66
2022/09/25 04:17:59;;;;;;;7.27;1.70;;;10.20;99.90;;;;;;5074508;28;20303;-66
2022/09/25 04:20:25;;;;;;;7.47;1.33;;;10.20;99.90;;;;;;5075085;28;20352;-66
2022/09/25 04:22:51;;;;;;;9.20;1.50;;;10.20;99.90;;;;;;5057000;28;20131;-66
2022/09/25 04:25:18;;;;;;;6.27;1.90;;;10.20;99.90;;;;;;5075206;28;20814;-66
2022/09/25 04:27:44;;;;;;;10.57;1.77;;;10.20;99.90;;;;;;5074738;28;20476;-66
2022/09/25 04:30:10;;;;;;;6.33;1.67;;;10.20;99.90;;;;;;5074674;28;20294;-66
2022/09/25 04:35:20;;;;;;;7.07;1.87;;;10.20;99.90;;;;;;5074881;28;20358;-66
2022/09/25 04:37:46;;;;;;;10.33;2.07;;;10.20;99.90;;;;;;5074699;28;20390;-66
2022/09/25 04:40:12;;;;;;;7.77;1.87;;;10.30;99.90;;;;;;5074896;28;20124;-66
2022/09/25 04:42:38;;;;;;;10.20;2.30;;;10.30;99.90;;;;;;5074767;28;20046;-66
2022/09/25 04:45:05;;;;;;;9.03;1.83;;;10.30;99.90;;;;;;5074383;28;20378;-66
2022/09/25 04:47:30;;;;;;;7.53;1.70;;;10.30;99.90;;;;;;5074579;28;20271;-66
2022/09/25 04:49:56;;;;;;;6.47;1.87;;;10.30;99.90;;;;;;5074174;28;20730;-66
2022/09/25 04:52:22;;;;;;;9.60;2.03;;;10.30;99.90;;;;;;5074462;28;20048;-66
2022/09/25 04:54:48;;;;;;;8.33;2.10;;;10.30;99.90;;;;;;5074435;28;20052;-66
2022/09/25 04:57:18;;;;;;;8.40;2.40;;;10.30;99.90;;;;;;5074129;28;20043;-66
2022/09/25 04:59:45;;;;;;;6.33;1.77;;;10.30;99.90;;;;;;5074137;28;20466;-66
2022/09/25 05:02:11;;;;;;;6.73;1.97;;;10.40;99.90;;;;;;5073549;28;20282;-66
2022/09/25 05:04:37;;;;;;;9.20;1.80;;;10.40;99.90;;;;;;5074272;28;20282;-66
2022/09/25 05:07:03;;;;;;;7.87;1.80;;;10.40;99.90;;;;;;5073955;28;20333;-66
2022/09/25 05:09:30;;;;;;;7.60;1.80;;;10.40;99.90;;;;;;5074462;28;20286;-66
2022/09/25 05:11:56;;;;;;;8.07;1.90;;;10.40;99.90;;;;;;5073763;28;20294;-66
2022/09/25 05:14:22;;;;;;;6.60;1.80;;;10.50;99.90;;;;;;5073898;28;20287;-66
2022/09/25 05:16:48;;;;;;;7.20;2.10;;;10.40;99.90;;;;;;5073914;28;20056;-66
2022/09/25 05:19:14;;;;;;;9.37;1.90;;;10.50;99.90;;;;;;5055799;28;20290;-66
2022/09/25 05:21:41;;;;;;;11.43;2.53;;;10.50;99.90;;;;;;5073927;28;20056;-66
2022/09/25 05:24:08;;;;;;;9.23;1.80;;;10.50;99.90;;;;;;5073565;28;20356;-66
2022/09/25 05:26:34;;;;;;;9.73;2.30;;;10.50;99.90;;;;;;5073864;28;20271;-66
2022/09/25 05:29:00;;;;;;;9.50;2.67;;;10.50;99.90;;;;;;5073546;28;20279;-66
2022/09/25 05:31:26;;;;;;;7.77;2.03;;;10.50;99.90;;;;;;5073674;28;20385;-66
2022/09/25 05:33:52;;;;;;;8.27;2.00;;;10.50;99.90;;;;;;5073826;28;20818;-66
2022/09/25 05:36:19;;;;;;;12.83;2.30;;;10.50;99.90;;;;;;5073332;28;20080;-66
2022/09/25 05:38:45;;;;;;;8.27;2.00;;;10.50;99.90;;;;;;5073606;28;20630;-66
2022/09/25 05:41:11;;;;;;;12.57;2.90;;;10.50;99.90;;;;;;5055648;28;20283;-66
2022/09/25 05:43:43;;;;;;;5.13;1.80;;;10.50;99.90;;;;;;5073605;28;20369;-66
2022/09/25 05:46:09;;;;;;;6.77;1.90;;;10.50;99.90;;;;;;5055681;28;20699;-66
2022/09/25 05:48:36;;;;;;;8.03;2.37;;;10.60;99.90;;;;;;5073392;28;20348;-66
2022/09/25 05:51:02;;;;;;;10.30;2.03;;;10.50;99.90;;;;;;5073071;28;20359;-66
2022/09/25 05:53:29;;;;;;;9.23;2.20;;;10.60;99.90;;;;;;5073473;28;20283;-66
2022/09/25 05:56:00;;;;;;;7.07;1.93;;;10.70;99.90;;;;;;5073149;28;20290;-66
2022/09/25 05:58:28;;;;;;;11.67;2.33;;;10.70;99.90;;;;;;5073457;28;20344;-66
2022/09/25 06:00:54;;;;;;;10.47;2.57;;;10.80;99.90;;;;;;5073340;28;20653;-66
2022/09/25 06:03:20;;;;;;;6.57;1.60;;;10.80;99.90;;;;;;5072952;28;20279;-66
2022/09/25 06:05:47;;;;;;;6.10;1.50;;;10.80;99.90;;;;;;5073118;28;20051;-66
2022/09/25 06:08:14;;;;;;;7.20;1.50;;;10.90;99.90;;;;;;5072769;28;20304;-66
2022/09/25 06:10:40;;;;;;;9.17;1.70;;;10.90;99.90;;;;;;5073124;28;20619;-66
2022/09/25 06:13:07;;;;;;;6.57;1.73;;;10.90;99.90;;;;;;5072719;28;20290;-66
2022/09/25 06:15:38;;;;;;;11.83;1.90;;;10.90;99.90;;;;;;5072185;28;20385;-66
2022/09/25 06:18:07;;;;;;;6.13;1.73;;;10.90;99.90;;;;;;5072631;28;20334;-66
2022/09/25 06:20:33;;;;;;;10.23;1.80;;;10.90;99.90;;;;;;5072934;28;20294;-66
2022/09/25 06:22:59;;;;;;;9.47;2.13;;;10.90;99.90;;;;;;5054742;28;20285;-70
2022/09/25 06:25:28;;;;;;;10.03;1.93;;;10.90;99.90;;;;;;5073052;28;20279;-66
2022/09/25 06:28:01;;;;;;;6.87;2.00;;;10.90;99.90;;;;;;5055068;28;20052;-66
2022/09/25 06:30:35;;;;;;;7.17;1.90;;;10.90;99.90;;;;;;5054951;28;20305;-66
2022/09/25 06:33:05;;;;;;;7.90;2.10;;;10.90;99.90;;;;;;5072536;28;20275;-70
2022/09/25 06:35:33;;;;;;;9.47;2.00;;;10.80;99.90;;;;;;5072946;28;20739;-66
2022/09/25 06:38:00;;;;;;;8.83;2.10;;;10.80;99.90;;;;;;5072660;28;20302;-66
2022/09/25 06:40:27;;;;;;;11.20;1.90;;;10.80;99.90;;;;;;5054815;28;20916;-66
2022/09/25 06:43:00;;;;;;;7.83;1.90;;;10.90;99.90;;;;;;5072665;28;20274;-66
2022/09/25 06:45:28;;;;;;;7.30;2.53;;;10.80;99.90;;;;;;5072453;28;20345;-66
2022/09/25 06:47:59;;;;;;;7.87;2.40;;;10.90;99.90;;;;;;5072687;28;20286;-66
2022/09/25 06:50:30;;;;;;;5.27;1.90;;;10.90;99.90;;;;;;5072412;28;20275;-66
2022/09/25 06:52:59;;;;;;;4.80;1.73;;;10.90;99.90;;;;;;5072760;28;20279;-66
2022/09/25 06:55:26;;;;;;;8.07;2.13;;;11.00;99.90;;;;;;5072037;28;20337;-66
2022/09/25 06:57:52;;;;;;;8.43;3.23;;;11.10;99.90;;;;;;5072474;28;20301;-66
2022/09/25 07:00:18;;;;;;;7.57;2.07;;;12.10;99.90;;;;;;5072305;28;20662;-66
2022/09/25 07:05:28;;;;;;;10.63;1.83;;;14.40;99.90;;;;;;5072353;28;20149;-66
2022/09/25 07:07:54;;;;;;;5.67;1.33;;;15.70;99.90;;;;;;5072799;28;20683;-66
2022/09/25 07:10:20;;;;;;;6.90;1.70;;;;;;;;;;5072355;28;20508;-67
2022/09/25 07:12:47;;;;;;;4.07;1.23;;;17.60;99.90;;;;;;5054863;28;20327;-66
2022/09/25 07:15:13;;;;;;;8.43;1.93;;;18.50;99.90;;;;;;5072107;28;20060;-67
2022/09/25 07:17:42;;;;;;;7.90;1.47;;;19.20;99.90;;;;;;5072490;28;20123;-67
2022/09/25 07:20:11;;;;;;;4.93;1.40;;;;;;;;;;5072162;28;20045;-67
2022/09/25 07:22:37;;;;;;;5.67;1.20;;;20.20;99.90;;;;;;5072408;28;20079;-66
2022/09/25 07:25:04;;;;;;;5.87;1.63;;;;;;;;;;5072416;28;20090;-67
2022/09/25 07:27:30;;;;;;;7.93;1.50;;;;;;;;;;5075908;28;20049;-67
2022/09/25 07:29:55;;;;;;;8.67;1.60;;;18.90;99.90;;;;;;5076177;28;20442;-67
2022/09/25 07:32:22;;;;;;;5.70;1.30;;;18.30;99.90;;;;;;5075851;28;20049;-67
2022/09/25 07:34:50;;;;;;;4.80;1.30;;;;;;;;;;5076057;28;20566;-67
2022/09/25 07:37:19;;;;;;;8.13;1.50;;;;;;;;;;5076100;28;20392;-66
2022/09/25 07:39:45;;;;;;;8.23;1.73;;;16.50;99.90;;;;;;5075914;28;20132;-66
2022/09/25 07:42:11;;;;;;;6.70;1.40;;;;;;;;;;5075679;28;20119;-67
2022/09/25 07:44:38;;;;;;;6.33;1.83;;;;;;;;;;5075743;28;20535;-67
2022/09/25 07:47:05;;;;;;;7.67;1.40;;;15.70;99.90;;;;;;5075808;28;20045;-66
2022/09/25 07:49:32;;;;;;;6.33;1.30;;;;;;;;;;5075467;28;20552;-67
2022/09/25 07:51:58;;;;;;;5.67;1.60;;;15.50;99.90;;;;;;5075833;28;20062;-66
2022/09/25 07:54:24;;;;;;;3.87;1.50;;;15.50;99.90;;;;;;5075466;28;20391;-66
2022/09/25 07:56:50;;;;;;;6.33;1.40;;;15.50;99.90;;;;;;5075730;28;20124;-66
2022/09/25 07:59:16;;;;;;;5.70;1.47;;;15.50;99.90;;;;;;5075306;28;20040;-66
2022/09/25 08:01:42;;;;;;;14.97;1.77;;;15.50;99.90;;;;;;5075561;28;20053;-66
2022/09/25 08:04:07;;;;;;;7.57;1.50;;;15.60;99.90;;;;;;5057803;28;20052;-66
2022/09/25 08:06:34;;;;;;;6.17;1.40;;;15.60;99.90;;;;;;5075213;28;20052;-66
2022/09/25 08:09:00;;;;;;;5.47;1.47;;;;;;;;;;5075454;28;20087;-66
2022/09/25 08:11:27;;;;;;;7.03;1.33;;;;;;;;;;5075114;28;20044;-66
2022/09/25 08:13:53;;;;;;;7.90;1.70;;;;;;;;;;5057889;28;20056;-66
2022/09/25 08:16:21;;;;;;;10.20;2.00;;;;;;;;;;5075070;28;20055;-67
2022/09/25 08:18:47;;;;;;;9.47;1.57;;;;;;;;;;5075322;28;20106;-66
2022/09/25 08:21:15;;;;;;;9.93;1.73;;;;;;;;;;5074975;28;20080;-67
2022/09/25 08:23:41;;;;;;;6.83;1.43;;;;;;;;;;5075206;28;20067;-67
2022/09/25 08:26:08;;;;;;;9.83;1.83;;;;;;;;;;5075203;28;20049;-66
2022/09/25 08:28:34;;;;;;;7.50;1.30;;;;;;;;;;5074776;28;20048;-67
2022/09/25 08:31:02;;;;;;;8.03;1.30;;;;;;;;;;5057561;28;20127;-66
2022/09/25 08:33:29;;;;;;;7.87;1.80;;;;;;;;;;5074732;28;20044;-66
2022/09/25 08:35:59;;;;;;;9.57;1.73;;;15.50;99.90;;;;;;5074945;28;20044;-66
2022/09/25 08:38:27;;;;;;;8.43;1.97;;;15.50;99.90;;;;;;5073904;28;20059;-66
2022/09/25 08:41:02;;;;;;;15.17;2.07;;;15.50;99.90;;;;;;5074845;28;20048;-67
2022/09/25 08:43:30;;;;;;;7.30;1.63;;;15.30;99.90;;;;;;5076609;28;20400;-66
2022/09/25 08:49:02;;;;;;;8.17;1.70;;;14.20;99.90;;;;;;5074791;28;20048;-66
2022/09/25 08:51:30;;;;;;;6.63;1.63;;;13.90;99.90;;;;;;5074610;28;20091;-66
2022/09/25 08:53:57;;;;;;;8.60;1.80;;;13.70;99.90;;;;;;5074708;28;20681;-66
2022/09/25 08:56:27;;;;;;;5.73;1.40;;;13.60;99.90;;;;;;5074255;28;20298;-66
2022/09/25 08:59:00;;;;;;;8.87;1.73;;;13.60;99.90;;;;;;5056547;28;20654;-66
2022/09/25 09:01:45;;;;;;;5.93;1.40;;;13.50;99.90;;;;;;5074146;28;20056;-66
2022/09/25 09:04:42;;;;;;;6.83;1.60;;;13.50;99.90;;;;;;5074266;28;20075;-65
2022/09/25 09:07:16;;;;;;;6.00;1.70;;;13.50;99.90;;;;;;5072592;28;20366;-65
2022/09/25 09:09:54;;;;;;;8.60;2.57;;;13.50;99.90;;;;;;5071327;28;20340;-65
2022/09/25 09:12:49;;;;;;;6.63;1.70;;;13.60;99.90;;;;;;5071185;28;20279;-65
2022/09/25 09:15:21;;;;;;;7.47;2.38;;;13.70;99.90;;;;;;5071107;28;20373;-66
2022/09/25 09:17:47;;;;;;;8.73;2.03;;;13.70;99.90;;;;;;5073704;28;20052;-65
2022/09/25 09:20:22;;;;;;;7.13;1.87;;;13.90;99.90;;;;;;5073901;28;20286;-67
2022/09/25 09:22:51;;;;;;;3.85;1.58;;;14.00;99.90;;;;;;5074235;28;20044;-68
2022/09/25 09:25:35;;;;;;;7.10;1.90;;;14.20;99.90;;;;;;5074063;28;20373;-68
2022/09/25 09:28:39;;;;;;;7.33;1.77;;;14.20;99.90;;;;;;5074267;28;20309;-67
2022/09/25 09:31:15;;;;;;;6.90;1.53;;;14.40;99.90;;;;;;4985079;28;20061;-68
2022/09/25 09:33:59;;;;;;;6.30;1.80;;;14.50;99.90;;;;;;5073709;28;20114;-68
2022/09/25 09:36:54;;;;;;;6.13;1.60;;;14.50;99.90;;;;;;5073668;28;20482;-67
2022/09/25 09:39:36;;;;;;;5.72;1.35;;;14.60;99.90;;;;;;5073827;28;20049;-66
2022/09/25 09:42:19;;;;;;;5.23;1.77;;;14.60;99.90;;;;;;5073769;28;20090;-68
2022/09/25 09:45:10;;;;;;;7.27;1.60;;;14.60;99.90;;;;;;5073467;28;20279;-67
2022/09/25 09:47:54;;;;;;;10.70;1.77;;;14.60;99.90;;;;;;5073421;28;20044;-66
2022/09/25 09:50:23;;;;;;;6.57;1.63;;;14.60;99.90;;;;;;5073639;28;20044;-66
2022/09/25 09:53:03;;;;;;;6.23;2.17;;;14.60;99.90;;;;;;5073483;28;20048;-68
2022/09/25 09:55:45;;;;;;;5.73;1.20;;;14.60;99.90;;;;;;5073190;28;20124;-67
2022/09/25 09:58:29;;;;;;;6.67;1.40;;;14.60;99.90;;;;;;5073237;28;20489;-66
2022/09/25 10:00:56;;;;;;;4.57;1.60;;;14.60;99.90;;;;;;5073470;28;20052;-66
2022/09/25 10:03:27;;;;;;;5.10;1.30;;;14.60;99.90;;;;;;5073185;28;20118;-65
2022/09/25 10:06:10;;;;;;;4.93;1.10;;;14.50;99.90;;;;;;5072935;28;20500;-65
2022/09/25 10:08:36;;;;;;;5.07;1.20;;;14.40;99.90;;;;;;5054713;28;20087;-65
2022/09/25 10:11:14;;;;;;;4.37;1.40;;;14.40;99.90;;;;;;5071539;28;20079;-65
2022/09/25 10:13:41;;;;;;;4.67;1.40;;;14.40;99.90;;;;;;5072700;28;20052;-65
2022/09/25 10:16:10;;;;;;;4.33;1.20;;;14.30;99.90;;;;;;5072684;28;20128;-65
2022/09/25 10:18:55;;;;;;;3.17;1.07;;;14.30;99.90;;;;;;5072728;28;20408;-65
2022/09/25 10:21:43;;;;;;;5.40;1.13;;;14.30;99.90;;;;;;5073191;28;20092;-65
2022/09/25 10:24:09;;;;;;;5.80;1.23;;;14.30;99.90;;;;;;5073019;28;20294;-65
2022/09/25 10:26:37;;;;;;;4.30;1.00;;;14.30;99.90;;;;;;5072620;28;20041;-65
2022/09/25 10:29:24;;;;;;;2.87;1.10;;;14.30;99.90;;;;;;5072947;28;20486;-65
2022/09/25 10:32:02;;;;;;;2.37;0.90;;;14.30;99.90;;;;;;5072641;28;20044;-65
2022/09/25 10:34:30;;;;;;;4.57;1.47;;;14.40;99.90;;;;;;5072668;28;20345;-67
2022/09/25 10:36:56;;;;;;;3.83;1.00;;;14.40;99.90;;;;;;5072774;28;20052;-65
2022/09/25 10:39:32;;;;;;;3.77;1.10;;;14.50;99.90;;;;;;5072556;28;20470;-65
2022/09/25 10:41:59;;;;;;;6.70;1.60;;;14.50;99.90;;;;;;5072848;28;20283;-65
2022/09/25 10:44:34;;;;;;;3.77;1.20;;;14.60;99.90;;;;;;5072811;28;20315;-65
2022/09/25 10:50:17;;;;;;;5.90;1.30;;;14.90;99.90;;;;;;5072603;28;19920;-65
2022/09/25 10:52:49;;;;;;;4.43;1.00;;;15.00;99.90;;;;;;5072557;28;20041;-67
2022/09/25 10:55:28;;;;;;;3.67;1.20;;;15.00;99.90;;;;;;5072872;28;20088;-65
2022/09/25 10:58:04;;;;;;;3.53;0.93;;;15.10;99.90;;;;;;5072388;28;20041;-67
2022/09/25 11:00:32;;;;;;;3.93;1.00;;;15.10;99.90;;;;;;5073476;28;20084;-67
2022/09/25 11:03:03;;;;;;;3.07;1.00;;;15.00;99.90;;;;;;5076656;28;20044;-67
2022/09/25 11:05:32;;;;;;;5.70;1.30;;;15.00;99.90;;;;;;5076835;28;20132;-67
2022/09/25 11:08:02;;;;;;;4.40;1.30;;;14.90;99.90;;;;;;5076776;28;20123;-65
2022/09/25 11:10:35;;;;;;;7.47;1.40;;;14.90;99.90;;;;;;5076724;28;20086;-65
2022/09/25 11:13:08;;;;;;;3.83;1.13;;;14.90;99.90;;;;;;5076435;28;20510;-65
2022/09/25 11:15:37;;;;;;;4.63;1.00;;;14.90;99.90;;;;;;5047922;28;20056;-66
2022/09/25 11:18:05;;;;;;;6.03;1.57;;;14.90;99.90;;;;;;5056623;28;20052;-65
2022/09/25 11:20:31;;;;;;;5.07;1.40;;;15.00;99.90;;;;;;5056424;28;20049;-65
2022/09/25 11:23:18;;;;;;;3.37;1.27;;;15.00;99.90;;;;;;5056131;28;20135;-65
2022/09/25 11:26:05;;;;;;;3.90;1.00;;;15.00;99.90;;;;;;5056177;28;20400;-65
2022/09/25 11:28:38;;;;;;;5.53;1.40;;;15.00;99.90;;;;;;5056391;28;20122;-65
2022/09/25 11:31:22;;;;;;;6.53;1.20;;;15.10;99.90;;;;;;5055952;28;20044;-66
2022/09/25 11:34:19;;;;;;;4.03;1.10;;;15.10;99.90;;;;;;5055036;28;20045;-68
2022/09/25 11:37:24;;;;;;;10.27;1.60;;;15.10;99.90;;;;;;5055967;28;20099;-67
2022/09/25 11:42:58;;;;;;;5.13;1.50;;;15.10;99.90;;;;;;5055951;28;20060;-68
2022/09/25 11:45:46;;;;;;;6.43;1.13;;;15.20;99.90;;;;;;5022322;28;20053;-69
2022/09/25 11:48:21;;;;;;;4.57;1.23;;;15.20;99.90;;;;;;5055932;28;20393;-68
2022/09/25 11:50:53;;;;;;;7.00;1.40;;;15.30;99.90;;;;;;5038201;28;20122;-68
2022/09/25 11:53:59;;;;;;;2.23;0.97;;;15.30;99.90;;;;;;5038250;28;20045;-66
2022/09/25 11:56:56;;;;;;;4.00;1.20;;;15.40;99.90;;;;;;5055943;28;20040;-67
2022/09/25 11:59:55;;;;;;;5.77;1.40;;;15.40;99.90;;;;;;5037914;28;20133;-67
2022/09/25 12:02:49;;;;;;;5.73;1.50;;;15.50;99.90;;;;;;5055847;28;20163;-67
2022/09/25 12:05:21;;;;;;;6.13;1.20;;;15.60;99.90;;;;;;5055964;28;20132;-69
2022/09/25 12:08:10;;;;;;;3.50;0.93;;;15.60;99.90;;;;;;5055331;28;20123;-65
2022/09/25 12:10:54;;;;;;;8.20;1.97;;;15.60;99.90;;;;;;5055536;28;20053;-65
2022/09/25 12:13:30;;;;;;;6.35;1.30;;;15.70;99.90;;;;;;5036951;28;20435;-65
2022/09/25 12:16:05;;;;;;;7.70;2.03;;;15.70;99.90;;;;;;5069151;28;20053;-65
2022/09/25 12:18:40;;;;;;;4.97;1.40;;;15.70;99.90;;;;;;5057392;28;20045;-65
2022/09/25 12:21:34;;;;;;;5.47;1.42;;;15.70;99.90;;;;;;5075288;28;20048;-65
2022/09/25 12:24:22;;;;;;;5.47;1.27;;;15.80;99.90;;;;;;5074994;28;20080;-65
2022/09/25 12:27:10;;;;;;;4.70;1.00;;;15.90;99.90;;;;;;5075063;28;20407;-65
2022/09/25 12:29:48;;;;;;;7.00;1.50;;;15.90;99.90;;;;;;5075302;28;20144;-65
2022/09/25 12:32:37;;;;;;;6.40;1.50;;;15.90;99.90;;;;;;5040900;28;20048;-65
2022/09/25 12:35:12;;;;;;;5.77;1.57;;;15.90;99.90;;;;;;5074841;28;20056;-65
2022/09/25 12:37:53;;;;;;;6.67;2.00;;;15.90;99.90;;;;;;5075022;28;20040;-65
2022/09/25 12:40:27;;;;;;;7.27;1.20;;;15.90;99.90;;;;;;5075104;28;20450;-65
2022/09/25 12:42:58;;;;;;;5.70;1.48;;;15.90;99.90;;;;;;5074665;28;20059;-65
2022/09/25 12:45:44;;;;;;;4.67;1.20;;;15.90;99.90;;;;;;5074993;28;20405;-65
2022/09/25 12:48:19;;;;;;;7.23;1.23;;;15.90;99.90;;;;;;5074967;28;20040;-66
2022/09/25 12:51:12;;;;;;;5.40;1.23;;;15.90;99.90;;;;;;5082745;28;20040;-66
2022/09/25 12:53:47;;;;;;;4.27;1.60;;;15.80;99.90;;;;;;5081272;28;20058;-66
2022/09/25 12:56:23;;;;;;;4.93;1.30;;;15.70;99.90;;;;;;5083136;28;20048;-65
2022/09/25 12:59:19;;;;;;;7.57;1.73;;;15.70;99.90;;;;;;5075195;28;20549;-65
2022/09/25 13:02:07;;;;;;;3.77;0.90;;;15.60;99.90;;;;;;5070188;28;20094;-68
2022/09/25 13:05:06;;;;;;;3.00;0.90;;;15.60;99.90;;;;;;5074555;28;20118;-65
2022/09/25 13:08:01;;;;;;;3.13;1.00;;;15.60;99.90;;;;;;5074635;28;20094;-65
2022/09/25 13:10:53;;;;;;;4.22;0.82;;;15.50;99.90;;;;;;5074382;28;20045;-65
2022/09/25 13:13:25;;;;;;;6.23;0.90;;;15.50;99.90;;;;;;5045251;28;20096;-65
2022/09/25 13:15:55;;;;;;;6.40;1.20;;;15.50;99.90;;;;;;5074049;28;20088;-69
2022/09/25 13:18:24;;;;;;;3.17;1.00;;;15.40;99.90;;;;;;5074315;28;20040;-69
2022/09/25 13:20:53;;;;;;;3.20;0.90;;;15.40;99.90;;;;;;5073707;28;20127;-66
2022/09/25 13:23:40;;;;;;;3.50;1.03;;;15.30;99.90;;;;;;5056263;28;20052;-67
2022/09/25 13:26:15;;;;;;;5.13;1.00;;;15.30;99.90;;;;;;5073830;28;20121;-65
2022/09/25 13:28:52;;;;;;;4.20;0.90;;;15.30;99.90;;;;;;5074163;28;20051;-65
2022/09/25 13:31:30;;;;;;;2.83;0.70;;;15.30;99.90;;;;;;5074169;28;20055;-65
2022/09/25 13:33:59;;;;;;;4.43;1.33;;;15.40;99.90;;;;;;5073587;28;20052;-66
2022/09/25 13:36:24;;;;;;;5.20;1.00;;;15.50;99.90;;;;;;5073678;28;20071;-64
2022/09/25 13:41:50;;;;;;;4.77;1.17;;;15.50;99.90;;;;;;5056257;28;20142;-65
2022/09/25 13:44:40;;;;;;;5.07;0.90;;;15.50;99.90;;;;;;5073780;28;20048;-65